sensor_id;sensor_type;location;lat;lon;timestamp;P1;durP1;ratioP1;P2;durP2;ratioP2
47922;SDS011;33688;44.354;9.228;2022-09-19T00:01:29;0.65;;;0.25;;
47922;SDS011;33688;44.354;9.228;2022-09-19T00:04:00;0.50;;;0.30;;
47922;SDS011;33688;44.354;9.228;2022-09-19T00:06:35;0.30;;;0.30;;
47922;SDS011;33688;44.354;9.228;2022-09-19T00:09:04;0.25;;;0.25;;
47922;SDS011;33688;44.354;9.228;2022-09-19T00:11:33;0.50;;;0.25;;
47922;SDS011;33688;44.354;9.228;2022-09-19T00:14:00;0.30;;;0.30;;
47922;SDS011;33688;44.354;9.228;2022-09-19T00:16:27;0.30;;;0.30;;
47922;SDS011;33688;44.354;9.228;2022-09-19T00:18:59;0.10;;;0.10;;
47922;SDS011;33688;44.354;9.228;2022-09-19T00:21:29;0.30;;;0.30;;
47922;SDS011;33688;44.354;9.228;2022-09-19T00:23:58;0.20;;;0.20;;
47922;SDS011;33688;44.354;9.228;2022-09-19T00:26:43;0.20;;;0.20;;
47922;SDS011;33688;44.354;9.228;2022-09-19T00:29:13;0.32;;;0.30;;
47922;SDS011;33688;44.354;9.228;2022-09-19T00:31:41;0.30;;;0.30;;
47922;SDS011;33688;44.354;9.228;2022-09-19T00:34:08;0.20;;;0.20;;
47922;SDS011;33688;44.354;9.228;2022-09-19T00:36:37;0.40;;;0.40;;
47922;SDS011;33688;44.354;9.228;2022-09-19T00:39:05;0.20;;;0.20;;
47922;SDS011;33688;44.354;9.228;2022-09-19T00:41:32;0.30;;;0.30;;
47922;SDS011;33688;44.354;9.228;2022-09-19T00:44:45;0.15;;;0.15;;
47922;SDS011;33688;44.354;9.228;2022-09-19T00:49:20;0.28;;;0.28;;
47922;SDS011;33688;44.354;9.228;2022-09-19T00:51:51;0.20;;;0.20;;
47922;SDS011;33688;44.354;9.228;2022-09-19T00:54:21;0.20;;;0.20;;
47922;SDS011;33688;44.354;9.228;2022-09-19T00:56:55;0.40;;;0.40;;
47922;SDS011;33688;44.354;9.228;2022-09-19T00:59:22;0.45;;;0.20;;
47922;SDS011;33688;44.354;9.228;2022-09-19T01:01:53;0.30;;;0.30;;
47922;SDS011;33688;44.354;9.228;2022-09-19T01:04:21;0.20;;;0.20;;
47922;SDS011;33688;44.354;9.228;2022-09-19T01:09:53;0.35;;;0.32;;
47922;SDS011;33688;44.354;9.228;2022-09-19T01:18:32;0.20;;;0.20;;
47922;SDS011;33688;44.354;9.228;2022-09-19T01:21:10;0.40;;;0.40;;
47922;SDS011;33688;44.354;9.228;2022-09-19T01:32:37;0.10;;;0.10;;
47922;SDS011;33688;44.354;9.228;2022-09-19T01:35:24;0.30;;;0.30;;
47922;SDS011;33688;44.354;9.228;2022-09-19T01:41:04;0.22;;;0.22;;
47922;SDS011;33688;44.354;9.228;2022-09-19T01:43:33;0.30;;;0.30;;
47922;SDS011;33688;44.354;9.228;2022-09-19T01:46:01;0.30;;;0.30;;
47922;SDS011;33688;44.354;9.228;2022-09-19T01:48:46;0.28;;;0.28;;
47922;SDS011;33688;44.354;9.228;2022-09-19T01:51:26;0.30;;;0.30;;
47922;SDS011;33688;44.354;9.228;2022-09-19T01:57:07;0.28;;;0.20;;
47922;SDS011;33688;44.354;9.228;2022-09-19T02:11:06;0.20;;;0.20;;
47922;SDS011;33688;44.354;9.228;2022-09-19T02:13:39;0.20;;;0.20;;
47922;SDS011;33688;44.354;9.228;2022-09-19T02:19:06;0.22;;;0.20;;
47922;SDS011;33688;44.354;9.228;2022-09-19T02:21:41;0.20;;;0.20;;
47922;SDS011;33688;44.354;9.228;2022-09-19T02:24:14;0.35;;;0.35;;
47922;SDS011;33688;44.354;9.228;2022-09-19T02:26:47;0.25;;;0.25;;
47922;SDS011;33688;44.354;9.228;2022-09-19T02:29:17;0.30;;;0.30;;
47922;SDS011;33688;44.354;9.228;2022-09-19T02:31:48;0.20;;;0.20;;
47922;SDS011;33688;44.354;9.228;2022-09-19T02:34:14;0.30;;;0.30;;
47922;SDS011;33688;44.354;9.228;2022-09-19T02:39:49;0.22;;;0.20;;
47922;SDS011;33688;44.354;9.228;2022-09-19T02:42:50;0.10;;;0.10;;
47922;SDS011;33688;44.354;9.228;2022-09-19T02:48:29;0.20;;;0.20;;
47922;SDS011;33688;44.354;9.228;2022-09-19T02:51:23;0.17;;;0.17;;
47922;SDS011;33688;44.354;9.228;2022-09-19T02:54:01;0.35;;;0.22;;
47922;SDS011;33688;44.354;9.228;2022-09-19T02:56:35;0.20;;;0.20;;
47922;SDS011;33688;44.354;9.228;2022-09-19T03:01:49;0.30;;;0.25;;
47922;SDS011;33688;44.354;9.228;2022-09-19T03:04:24;0.20;;;0.20;;
47922;SDS011;33688;44.354;9.228;2022-09-19T03:09:57;0.22;;;0.22;;
47922;SDS011;33688;44.354;9.228;2022-09-19T03:12:59;0.50;;;0.38;;
47922;SDS011;33688;44.354;9.228;2022-09-19T03:18:15;0.20;;;0.20;;
47922;SDS011;33688;44.354;9.228;2022-09-19T03:20:48;0.22;;;0.22;;
47922;SDS011;33688;44.354;9.228;2022-09-19T03:23:35;0.25;;;0.25;;
47922;SDS011;33688;44.354;9.228;2022-09-19T03:26:02;0.57;;;0.30;;
47922;SDS011;33688;44.354;9.228;2022-09-19T03:28:32;0.20;;;0.20;;
47922;SDS011;33688;44.354;9.228;2022-09-19T03:30:58;0.10;;;0.10;;
47922;SDS011;33688;44.354;9.228;2022-09-19T03:33:25;0.60;;;0.35;;
47922;SDS011;33688;44.354;9.228;2022-09-19T03:35:52;0.28;;;0.28;;
47922;SDS011;33688;44.354;9.228;2022-09-19T03:38:22;0.20;;;0.20;;
47922;SDS011;33688;44.354;9.228;2022-09-19T03:40:49;0.43;;;0.32;;
47922;SDS011;33688;44.354;9.228;2022-09-19T03:43:15;0.38;;;0.32;;
47922;SDS011;33688;44.354;9.228;2022-09-19T03:45:43;0.20;;;0.20;;
47922;SDS011;33688;44.354;9.228;2022-09-19T03:48:09;0.35;;;0.20;;
47922;SDS011;33688;44.354;9.228;2022-09-19T03:50:34;0.22;;;0.22;;
47922;SDS011;33688;44.354;9.228;2022-09-19T03:53:06;0.20;;;0.20;;
47922;SDS011;33688;44.354;9.228;2022-09-19T03:55:35;0.30;;;0.30;;
47922;SDS011;33688;44.354;9.228;2022-09-19T03:58:11;0.55;;;0.20;;
47922;SDS011;33688;44.354;9.228;2022-09-19T04:00:38;0.17;;;0.17;;
47922;SDS011;33688;44.354;9.228;2022-09-19T04:03:04;0.32;;;0.20;;
47922;SDS011;33688;44.354;9.228;2022-09-19T04:05:31;0.10;;;0.10;;
47922;SDS011;33688;44.354;9.228;2022-09-19T04:07:58;0.35;;;0.30;;
47922;SDS011;33688;44.354;9.228;2022-09-19T04:10:27;0.30;;;0.30;;
47922;SDS011;33688;44.354;9.228;2022-09-19T04:12:53;0.28;;;0.20;;
47922;SDS011;33688;44.354;9.228;2022-09-19T04:15:19;0.20;;;0.20;;
47922;SDS011;33688;44.354;9.228;2022-09-19T04:17:45;0.20;;;0.20;;
47922;SDS011;33688;44.354;9.228;2022-09-19T04:20:15;0.30;;;0.20;;
47922;SDS011;33688;44.354;9.228;2022-09-19T04:23:10;0.20;;;0.20;;
47922;SDS011;33688;44.354;9.228;2022-09-19T04:26:00;0.30;;;0.30;;
47922;SDS011;33688;44.354;9.228;2022-09-19T04:28:48;0.35;;;0.20;;
47922;SDS011;33688;44.354;9.228;2022-09-19T04:31:14;0.17;;;0.17;;
47922;SDS011;33688;44.354;9.228;2022-09-19T04:33:45;0.15;;;0.15;;
47922;SDS011;33688;44.354;9.228;2022-09-19T04:36:11;0.20;;;0.20;;
47922;SDS011;33688;44.354;9.228;2022-09-19T04:38:38;0.20;;;0.20;;
47922;SDS011;33688;44.354;9.228;2022-09-19T04:41:14;0.20;;;0.20;;
47922;SDS011;33688;44.354;9.228;2022-09-19T04:43:40;0.20;;;0.20;;
47922;SDS011;33688;44.354;9.228;2022-09-19T04:46:32;0.30;;;0.30;;
47922;SDS011;33688;44.354;9.228;2022-09-19T04:49:03;0.50;;;0.30;;
47922;SDS011;33688;44.354;9.228;2022-09-19T04:51:32;0.20;;;0.20;;
47922;SDS011;33688;44.354;9.228;2022-09-19T04:53:58;0.30;;;0.30;;
47922;SDS011;33688;44.354;9.228;2022-09-19T04:56:26;0.20;;;0.20;;
47922;SDS011;33688;44.354;9.228;2022-09-19T04:58:53;0.38;;;0.30;;
47922;SDS011;33688;44.354;9.228;2022-09-19T05:01:19;0.40;;;0.22;;
47922;SDS011;33688;44.354;9.228;2022-09-19T05:03:46;0.20;;;0.20;;
47922;SDS011;33688;44.354;9.228;2022-09-19T05:06:14;0.30;;;0.30;;
47922;SDS011;33688;44.354;9.228;2022-09-19T05:08:40;0.30;;;0.20;;
47922;SDS011;33688;44.354;9.228;2022-09-19T05:11:20;0.25;;;0.25;;
47922;SDS011;33688;44.354;9.228;2022-09-19T05:13:48;0.20;;;0.20;;
47922;SDS011;33688;44.354;9.228;2022-09-19T05:16:17;0.20;;;0.20;;
47922;SDS011;33688;44.354;9.228;2022-09-19T05:18:56;0.22;;;0.20;;
47922;SDS011;33688;44.354;9.228;2022-09-19T05:21:22;0.32;;;0.30;;
47922;SDS011;33688;44.354;9.228;2022-09-19T05:23:49;0.25;;;0.25;;
47922;SDS011;33688;44.354;9.228;2022-09-19T05:26:14;0.25;;;0.25;;
47922;SDS011;33688;44.354;9.228;2022-09-19T05:28:43;0.20;;;0.20;;
47922;SDS011;33688;44.354;9.228;2022-09-19T05:31:12;0.20;;;0.20;;
47922;SDS011;33688;44.354;9.228;2022-09-19T05:33:44;0.30;;;0.30;;
47922;SDS011;33688;44.354;9.228;2022-09-19T05:36:17;0.20;;;0.20;;
47922;SDS011;33688;44.354;9.228;2022-09-19T05:39:16;0.20;;;0.20;;
47922;SDS011;33688;44.354;9.228;2022-09-19T05:42:06;0.22;;;0.22;;
47922;SDS011;33688;44.354;9.228;2022-09-19T05:44:33;0.20;;;0.20;;
47922;SDS011;33688;44.354;9.228;2022-09-19T05:47:01;0.22;;;0.20;;
47922;SDS011;33688;44.354;9.228;2022-09-19T05:49:27;0.20;;;0.20;;
47922;SDS011;33688;44.354;9.228;2022-09-19T05:51:53;0.52;;;0.35;;
47922;SDS011;33688;44.354;9.228;2022-09-19T05:54:23;0.20;;;0.20;;
47922;SDS011;33688;44.354;9.228;2022-09-19T05:57:07;0.30;;;0.30;;
47922;SDS011;33688;44.354;9.228;2022-09-19T05:59:33;1.08;;;0.30;;
47922;SDS011;33688;44.354;9.228;2022-09-19T06:01:59;0.40;;;0.30;;
47922;SDS011;33688;44.354;9.228;2022-09-19T06:04:42;0.73;;;0.20;;
47922;SDS011;33688;44.354;9.228;2022-09-19T06:07:09;0.20;;;0.20;;
47922;SDS011;33688;44.354;9.228;2022-09-19T06:09:34;0.40;;;0.10;;
47922;SDS011;33688;44.354;9.228;2022-09-19T06:12:01;0.20;;;0.20;;
47922;SDS011;33688;44.354;9.228;2022-09-19T06:14:28;0.20;;;0.20;;
47922;SDS011;33688;44.354;9.228;2022-09-19T06:16:55;0.30;;;0.30;;
47922;SDS011;33688;44.354;9.228;2022-09-19T06:19:21;0.30;;;0.30;;
47922;SDS011;33688;44.354;9.228;2022-09-19T06:21:56;0.55;;;0.45;;
47922;SDS011;33688;44.354;9.228;2022-09-19T06:24:24;2.35;;;1.35;;
47922;SDS011;33688;44.354;9.228;2022-09-19T06:26:51;5.50;;;1.15;;
47922;SDS011;33688;44.354;9.228;2022-09-19T06:29:23;6.68;;;1.60;;
47922;SDS011;33688;44.354;9.228;2022-09-19T06:32:21;8.85;;;2.10;;
47922;SDS011;33688;44.354;9.228;2022-09-19T06:34:55;18.15;;;2.60;;
47922;SDS011;33688;44.354;9.228;2022-09-19T06:37:30;10.07;;;2.60;;
47922;SDS011;33688;44.354;9.228;2022-09-19T06:39:56;13.32;;;2.78;;
47922;SDS011;33688;44.354;9.228;2022-09-19T06:42:44;12.75;;;2.15;;
47922;SDS011;33688;44.354;9.228;2022-09-19T06:45:29;5.50;;;2.38;;
47922;SDS011;33688;44.354;9.228;2022-09-19T06:48:25;9.13;;;2.50;;
47922;SDS011;33688;44.354;9.228;2022-09-19T06:51:02;11.88;;;2.53;;
47922;SDS011;33688;44.354;9.228;2022-09-19T06:53:28;14.18;;;3.40;;
47922;SDS011;33688;44.354;9.228;2022-09-19T06:55:59;20.00;;;3.85;;
47922;SDS011;33688;44.354;9.228;2022-09-19T06:58:26;65.88;;;8.88;;
47922;SDS011;33688;44.354;9.228;2022-09-19T07:00:53;57.72;;;8.18;;
47922;SDS011;33688;44.354;9.228;2022-09-19T07:03:20;65.28;;;8.52;;
47922;SDS011;33688;44.354;9.228;2022-09-19T07:05:51;26.15;;;6.18;;
47922;SDS011;33688;44.354;9.228;2022-09-19T07:08:24;31.63;;;6.72;;
47922;SDS011;33688;44.354;9.228;2022-09-19T07:10:55;32.30;;;4.55;;
47922;SDS011;33688;44.354;9.228;2022-09-19T07:13:22;21.25;;;4.93;;
47922;SDS011;33688;44.354;9.228;2022-09-19T07:15:54;19.92;;;4.45;;
47922;SDS011;33688;44.354;9.228;2022-09-19T07:18:26;12.50;;;4.05;;
47922;SDS011;33688;44.354;9.228;2022-09-19T07:20:53;23.08;;;4.07;;
47922;SDS011;33688;44.354;9.228;2022-09-19T07:23:28;19.65;;;3.92;;
47922;SDS011;33688;44.354;9.228;2022-09-19T07:26:06;14.60;;;4.63;;
47922;SDS011;33688;44.354;9.228;2022-09-19T07:28:34;19.92;;;4.80;;
47922;SDS011;33688;44.354;9.228;2022-09-19T07:31:01;16.73;;;4.55;;
47922;SDS011;33688;44.354;9.228;2022-09-19T07:33:30;13.82;;;5.03;;
47922;SDS011;33688;44.354;9.228;2022-09-19T07:35:58;18.52;;;5.28;;
47922;SDS011;33688;44.354;9.228;2022-09-19T07:38:27;16.08;;;6.10;;
47922;SDS011;33688;44.354;9.228;2022-09-19T07:41:02;13.70;;;5.38;;
47922;SDS011;33688;44.354;9.228;2022-09-19T07:43:33;13.45;;;6.13;;
47922;SDS011;33688;44.354;9.228;2022-09-19T07:46:34;14.95;;;4.75;;
47922;SDS011;33688;44.354;9.228;2022-09-19T07:49:29;13.75;;;5.18;;
47922;SDS011;33688;44.354;9.228;2022-09-19T07:52:18;12.63;;;4.53;;
47922;SDS011;33688;44.354;9.228;2022-09-19T07:54:44;17.13;;;4.57;;
47922;SDS011;33688;44.354;9.228;2022-09-19T07:57:11;14.52;;;3.55;;
47922;SDS011;33688;44.354;9.228;2022-09-19T07:59:37;16.05;;;3.47;;
47922;SDS011;33688;44.354;9.228;2022-09-19T08:02:05;9.32;;;3.05;;
47922;SDS011;33688;44.354;9.228;2022-09-19T08:04:35;14.40;;;3.85;;
47922;SDS011;33688;44.354;9.228;2022-09-19T08:07:04;9.88;;;3.45;;
47922;SDS011;33688;44.354;9.228;2022-09-19T08:09:33;10.57;;;3.60;;
47922;SDS011;33688;44.354;9.228;2022-09-19T08:12:07;12.52;;;4.05;;
47922;SDS011;33688;44.354;9.228;2022-09-19T08:14:48;9.80;;;3.10;;
47922;SDS011;33688;44.354;9.228;2022-09-19T08:17:14;13.13;;;3.80;;
47922;SDS011;33688;44.354;9.228;2022-09-19T08:19:43;8.25;;;3.00;;
47922;SDS011;33688;44.354;9.228;2022-09-19T08:22:09;11.95;;;3.20;;
47922;SDS011;33688;44.354;9.228;2022-09-19T08:24:43;13.85;;;4.43;;
47922;SDS011;33688;44.354;9.228;2022-09-19T08:27:13;13.45;;;5.45;;
47922;SDS011;33688;44.354;9.228;2022-09-19T08:29:40;10.50;;;3.95;;
47922;SDS011;33688;44.354;9.228;2022-09-19T08:32:10;10.32;;;3.72;;
47922;SDS011;33688;44.354;9.228;2022-09-19T08:34:37;15.50;;;4.00;;
47922;SDS011;33688;44.354;9.228;2022-09-19T08:37:04;9.30;;;3.35;;
47922;SDS011;33688;44.354;9.228;2022-09-19T08:39:32;9.70;;;3.75;;
47922;SDS011;33688;44.354;9.228;2022-09-19T08:47:58;10.40;;;3.45;;
47922;SDS011;33688;44.354;9.228;2022-09-19T08:50:31;8.85;;;3.35;;
47922;SDS011;33688;44.354;9.228;2022-09-19T08:53:04;11.10;;;3.20;;
47922;SDS011;33688;44.354;9.228;2022-09-19T08:55:38;9.82;;;3.90;;
47922;SDS011;33688;44.354;9.228;2022-09-19T08:58:16;6.72;;;3.17;;
47922;SDS011;33688;44.354;9.228;2022-09-19T09:01:06;9.65;;;3.17;;
47922;SDS011;33688;44.354;9.228;2022-09-19T09:04:16;7.10;;;3.25;;
47922;SDS011;33688;44.354;9.228;2022-09-19T09:06:48;7.75;;;2.83;;
47922;SDS011;33688;44.354;9.228;2022-09-19T09:18:19;7.43;;;3.08;;
47922;SDS011;33688;44.354;9.228;2022-09-19T09:24:32;6.80;;;3.13;;
47922;SDS011;33688;44.354;9.228;2022-09-19T09:27:19;6.63;;;2.80;;
47922;SDS011;33688;44.354;9.228;2022-09-19T09:29:56;6.05;;;2.80;;
47922;SDS011;33688;44.354;9.228;2022-09-19T09:32:51;6.90;;;2.97;;
47922;SDS011;33688;44.354;9.228;2022-09-19T09:35:35;9.48;;;2.78;;
47922;SDS011;33688;44.354;9.228;2022-09-19T09:38:21;12.82;;;2.65;;
47922;SDS011;33688;44.354;9.228;2022-09-19T09:47:23;9.05;;;2.38;;
47922;SDS011;33688;44.354;9.228;2022-09-19T09:50:18;10.70;;;2.60;;
47922;SDS011;33688;44.354;9.228;2022-09-19T09:53:08;7.70;;;2.75;;
47922;SDS011;33688;44.354;9.228;2022-09-19T09:58:46;8.27;;;2.83;;
47922;SDS011;33688;44.354;9.228;2022-09-19T10:02:14;4.82;;;2.45;;
47922;SDS011;33688;44.354;9.228;2022-09-19T10:05:21;7.13;;;2.70;;
47922;SDS011;33688;44.354;9.228;2022-09-19T10:08:14;4.82;;;2.50;;
47922;SDS011;33688;44.354;9.228;2022-09-19T10:14:40;2.67;;;1.63;;
47922;SDS011;33688;44.354;9.228;2022-09-19T10:17:22;4.80;;;2.38;;
47922;SDS011;33688;44.354;9.228;2022-09-19T10:19:52;3.75;;;2.17;;
47922;SDS011;33688;44.354;9.228;2022-09-19T10:22:25;6.93;;;2.80;;
47922;SDS011;33688;44.354;9.228;2022-09-19T10:25:07;6.30;;;2.63;;
47922;SDS011;33688;44.354;9.228;2022-09-19T10:27:38;4.80;;;2.90;;
47922;SDS011;33688;44.354;9.228;2022-09-19T10:30:22;5.60;;;2.38;;
47922;SDS011;33688;44.354;9.228;2022-09-19T10:32:52;8.23;;;2.78;;
47922;SDS011;33688;44.354;9.228;2022-09-19T10:35:38;5.82;;;2.38;;
47922;SDS011;33688;44.354;9.228;2022-09-19T10:38:12;5.63;;;2.40;;
47922;SDS011;33688;44.354;9.228;2022-09-19T10:40:55;5.50;;;2.25;;
47922;SDS011;33688;44.354;9.228;2022-09-19T10:51:56;3.95;;;1.92;;
47922;SDS011;33688;44.354;9.228;2022-09-19T10:57:02;4.30;;;2.55;;
47922;SDS011;33688;44.354;9.228;2022-09-19T10:59:51;8.20;;;1.95;;
47922;SDS011;33688;44.354;9.228;2022-09-19T11:02:29;3.05;;;1.70;;
47922;SDS011;33688;44.354;9.228;2022-09-19T11:07:46;6.43;;;2.03;;
47922;SDS011;33688;44.354;9.228;2022-09-19T11:10:28;5.80;;;2.03;;
47922;SDS011;33688;44.354;9.228;2022-09-19T11:13:15;4.68;;;2.17;;
47922;SDS011;33688;44.354;9.228;2022-09-19T11:30:25;5.68;;;2.35;;
47922;SDS011;33688;44.354;9.228;2022-09-19T11:38:55;3.40;;;1.93;;
47922;SDS011;33688;44.354;9.228;2022-09-19T11:44:31;2.67;;;1.55;;
47922;SDS011;33688;44.354;9.228;2022-09-19T11:51:24;2.88;;;1.52;;
47922;SDS011;33688;44.354;9.228;2022-09-19T11:57:08;3.45;;;1.63;;
47922;SDS011;33688;44.354;9.228;2022-09-19T12:08:58;3.10;;;1.55;;
47922;SDS011;33688;44.354;9.228;2022-09-19T12:11:44;5.25;;;1.75;;
47922;SDS011;33688;44.354;9.228;2022-09-19T12:14:25;5.30;;;1.60;;
47922;SDS011;33688;44.354;9.228;2022-09-19T12:17:02;3.13;;;1.50;;
47922;SDS011;33688;44.354;9.228;2022-09-19T12:19:35;2.40;;;1.55;;
47922;SDS011;33688;44.354;9.228;2022-09-19T12:22:12;3.17;;;1.52;;
47922;SDS011;33688;44.354;9.228;2022-09-19T12:27:49;4.65;;;1.98;;
47922;SDS011;33688;44.354;9.228;2022-09-19T12:30:39;4.68;;;1.40;;
47922;SDS011;33688;44.354;9.228;2022-09-19T12:36:13;4.03;;;1.88;;
47922;SDS011;33688;44.354;9.228;2022-09-19T12:39:06;2.05;;;1.23;;
47922;SDS011;33688;44.354;9.228;2022-09-19T12:41:43;4.80;;;1.83;;
47922;SDS011;33688;44.354;9.228;2022-09-19T12:44:28;3.65;;;1.55;;
47922;SDS011;33688;44.354;9.228;2022-09-19T12:50:38;7.50;;;1.85;;
47922;SDS011;33688;44.354;9.228;2022-09-19T12:56:04;3.13;;;1.60;;
47922;SDS011;33688;44.354;9.228;2022-09-19T12:58:57;2.83;;;1.70;;
47922;SDS011;33688;44.354;9.228;2022-09-19T13:04:26;2.80;;;1.88;;
47922;SDS011;33688;44.354;9.228;2022-09-19T13:07:09;2.03;;;1.75;;
47922;SDS011;33688;44.354;9.228;2022-09-19T13:12:16;2.53;;;1.20;;
47922;SDS011;33688;44.354;9.228;2022-09-19T13:14:56;2.08;;;1.05;;
47922;SDS011;33688;44.354;9.228;2022-09-19T13:17:24;6.90;;;1.95;;
47922;SDS011;33688;44.354;9.228;2022-09-19T13:20:29;3.53;;;1.73;;
47922;SDS011;33688;44.354;9.228;2022-09-19T13:23:22;2.60;;;1.48;;
47922;SDS011;33688;44.354;9.228;2022-09-19T13:29:00;3.78;;;1.40;;
47922;SDS011;33688;44.354;9.228;2022-09-19T13:37:02;3.47;;;1.20;;
47922;SDS011;33688;44.354;9.228;2022-09-19T13:45:45;1.33;;;0.90;;
47922;SDS011;33688;44.354;9.228;2022-09-19T13:48:44;4.43;;;1.48;;
47922;SDS011;33688;44.354;9.228;2022-09-19T13:51:20;2.33;;;1.33;;
47922;SDS011;33688;44.354;9.228;2022-09-19T13:54:14;6.50;;;1.88;;
47922;SDS011;33688;44.354;9.228;2022-09-19T13:59:32;2.67;;;1.88;;
47922;SDS011;33688;44.354;9.228;2022-09-19T14:04:41;14.98;;;1.70;;
47922;SDS011;33688;44.354;9.228;2022-09-19T14:07:29;6.80;;;1.52;;
47922;SDS011;33688;44.354;9.228;2022-09-19T14:10:18;2.93;;;1.57;;
47922;SDS011;33688;44.354;9.228;2022-09-19T14:16:07;2.03;;;1.02;;
47922;SDS011;33688;44.354;9.228;2022-09-19T14:18:55;3.72;;;0.98;;
47922;SDS011;33688;44.354;9.228;2022-09-19T14:23:55;6.45;;;1.38;;
47922;SDS011;33688;44.354;9.228;2022-09-19T14:26:36;2.33;;;1.38;;
47922;SDS011;33688;44.354;9.228;2022-09-19T14:29:27;5.97;;;1.60;;
47922;SDS011;33688;44.354;9.228;2022-09-19T14:44:06;4.22;;;1.50;;
47922;SDS011;33688;44.354;9.228;2022-09-19T14:47:08;3.45;;;1.73;;
47922;SDS011;33688;44.354;9.228;2022-09-19T14:52:46;2.65;;;1.02;;
47922;SDS011;33688;44.354;9.228;2022-09-19T14:55:42;3.45;;;1.27;;
47922;SDS011;33688;44.354;9.228;2022-09-19T14:58:24;3.40;;;1.25;;
47922;SDS011;33688;44.354;9.228;2022-09-19T15:01:16;2.53;;;1.40;;
47922;SDS011;33688;44.354;9.228;2022-09-19T15:03:57;4.25;;;1.35;;
47922;SDS011;33688;44.354;9.228;2022-09-19T15:06:43;2.13;;;1.02;;
47922;SDS011;33688;44.354;9.228;2022-09-19T15:09:26;6.25;;;1.17;;
47922;SDS011;33688;44.354;9.228;2022-09-19T15:11:57;4.68;;;1.20;;
47922;SDS011;33688;44.354;9.228;2022-09-19T15:14:26;1.35;;;1.05;;
47922;SDS011;33688;44.354;9.228;2022-09-19T15:17:10;2.65;;;1.30;;
47922;SDS011;33688;44.354;9.228;2022-09-19T15:19:42;3.17;;;1.50;;
47922;SDS011;33688;44.354;9.228;2022-09-19T15:24:52;3.28;;;1.70;;
47922;SDS011;33688;44.354;9.228;2022-09-19T15:27:23;1.45;;;1.08;;
47922;SDS011;33688;44.354;9.228;2022-09-19T15:29:52;2.23;;;1.00;;
47922;SDS011;33688;44.354;9.228;2022-09-19T15:35:11;2.42;;;1.20;;
47922;SDS011;33688;44.354;9.228;2022-09-19T15:37:41;2.15;;;0.90;;
47922;SDS011;33688;44.354;9.228;2022-09-19T15:40:29;5.75;;;1.13;;
47922;SDS011;33688;44.354;9.228;2022-09-19T15:42:59;2.78;;;1.15;;
47922;SDS011;33688;44.354;9.228;2022-09-19T15:48:16;2.88;;;1.23;;
47922;SDS011;33688;44.354;9.228;2022-09-19T15:50:53;5.20;;;1.10;;
47922;SDS011;33688;44.354;9.228;2022-09-19T15:53:34;2.80;;;1.10;;
47922;SDS011;33688;44.354;9.228;2022-09-19T15:56:04;3.70;;;1.65;;
47922;SDS011;33688;44.354;9.228;2022-09-19T15:58:46;5.05;;;1.60;;
47922;SDS011;33688;44.354;9.228;2022-09-19T16:01:20;3.53;;;1.00;;
47922;SDS011;33688;44.354;9.228;2022-09-19T16:03:58;2.97;;;1.02;;
47922;SDS011;33688;44.354;9.228;2022-09-19T16:06:34;2.75;;;1.02;;
47922;SDS011;33688;44.354;9.228;2022-09-19T16:14:55;1.13;;;0.90;;
47922;SDS011;33688;44.354;9.228;2022-09-19T16:23:00;13.10;;;1.98;;
47922;SDS011;33688;44.354;9.228;2022-09-19T16:33:40;2.00;;;0.93;;
47922;SDS011;33688;44.354;9.228;2022-09-19T16:36:11;1.67;;;1.10;;
47922;SDS011;33688;44.354;9.228;2022-09-19T16:41:33;1.88;;;1.05;;
47922;SDS011;33688;44.354;9.228;2022-09-19T16:46:43;2.33;;;1.20;;
47922;SDS011;33688;44.354;9.228;2022-09-19T16:49:10;1.95;;;0.88;;
47922;SDS011;33688;44.354;9.228;2022-09-19T16:51:36;9.38;;;0.95;;
47922;SDS011;33688;44.354;9.228;2022-09-19T16:54:01;3.80;;;1.38;;
47922;SDS011;33688;44.354;9.228;2022-09-19T16:56:29;2.38;;;0.90;;
47922;SDS011;33688;44.354;9.228;2022-09-19T16:58:56;1.83;;;1.23;;
47922;SDS011;33688;44.354;9.228;2022-09-19T17:01:22;2.28;;;0.93;;
47922;SDS011;33688;44.354;9.228;2022-09-19T17:03:49;3.25;;;0.77;;
47922;SDS011;33688;44.354;9.228;2022-09-19T17:06:15;6.05;;;1.15;;
47922;SDS011;33688;44.354;9.228;2022-09-19T17:08:41;1.33;;;0.90;;
47922;SDS011;33688;44.354;9.228;2022-09-19T17:11:10;2.00;;;0.90;;
47922;SDS011;33688;44.354;9.228;2022-09-19T17:13:37;5.38;;;1.15;;
47922;SDS011;33688;44.354;9.228;2022-09-19T17:16:06;2.80;;;0.98;;
47922;SDS011;33688;44.354;9.228;2022-09-19T17:18:34;2.08;;;0.90;;
47922;SDS011;33688;44.354;9.228;2022-09-19T17:21:00;2.80;;;1.10;;
47922;SDS011;33688;44.354;9.228;2022-09-19T17:23:27;1.70;;;0.90;;
47922;SDS011;33688;44.354;9.228;2022-09-19T17:25:55;1.13;;;0.80;;
47922;SDS011;33688;44.354;9.228;2022-09-19T17:28:23;1.88;;;0.70;;
47922;SDS011;33688;44.354;9.228;2022-09-19T17:30:52;2.15;;;1.38;;
47922;SDS011;33688;44.354;9.228;2022-09-19T17:33:20;1.42;;;1.13;;
47922;SDS011;33688;44.354;9.228;2022-09-19T17:35:50;2.92;;;1.50;;
47922;SDS011;33688;44.354;9.228;2022-09-19T17:38:17;2.72;;;1.02;;
47922;SDS011;33688;44.354;9.228;2022-09-19T17:40:45;2.97;;;1.00;;
47922;SDS011;33688;44.354;9.228;2022-09-19T17:43:16;1.10;;;0.80;;
47922;SDS011;33688;44.354;9.228;2022-09-19T17:45:46;1.05;;;0.70;;
47922;SDS011;33688;44.354;9.228;2022-09-19T17:48:15;1.95;;;0.82;;
47922;SDS011;33688;44.354;9.228;2022-09-19T17:50:43;1.00;;;0.90;;
47922;SDS011;33688;44.354;9.228;2022-09-19T17:53:12;2.65;;;1.27;;
47922;SDS011;33688;44.354;9.228;2022-09-19T17:55:38;1.92;;;0.90;;
47922;SDS011;33688;44.354;9.228;2022-09-19T17:58:04;1.52;;;0.70;;
47922;SDS011;33688;44.354;9.228;2022-09-19T18:00:33;1.05;;;0.73;;
47922;SDS011;33688;44.354;9.228;2022-09-19T18:02:59;1.77;;;0.80;;
47922;SDS011;33688;44.354;9.228;2022-09-19T18:06:12;1.85;;;0.98;;
47922;SDS011;33688;44.354;9.228;2022-09-19T18:08:38;1.70;;;1.08;;
47922;SDS011;33688;44.354;9.228;2022-09-19T18:11:04;1.98;;;1.05;;
47922;SDS011;33688;44.354;9.228;2022-09-19T18:13:31;1.10;;;1.00;;
47922;SDS011;33688;44.354;9.228;2022-09-19T18:16:01;1.48;;;0.80;;
47922;SDS011;33688;44.354;9.228;2022-09-19T18:18:35;1.95;;;0.80;;
47922;SDS011;33688;44.354;9.228;2022-09-19T18:21:03;2.35;;;0.80;;
47922;SDS011;33688;44.354;9.228;2022-09-19T18:23:30;1.33;;;0.85;;
47922;SDS011;33688;44.354;9.228;2022-09-19T18:25:57;6.28;;;1.05;;
47922;SDS011;33688;44.354;9.228;2022-09-19T18:28:26;1.67;;;0.80;;
47922;SDS011;33688;44.354;9.228;2022-09-19T18:30:54;3.08;;;1.20;;
47922;SDS011;33688;44.354;9.228;2022-09-19T18:33:21;3.05;;;0.93;;
47922;SDS011;33688;44.354;9.228;2022-09-19T18:35:49;2.78;;;1.20;;
47922;SDS011;33688;44.354;9.228;2022-09-19T18:38:16;1.15;;;0.77;;
47922;SDS011;33688;44.354;9.228;2022-09-19T18:40:42;3.38;;;1.38;;
47922;SDS011;33688;44.354;9.228;2022-09-19T18:43:09;3.60;;;1.10;;
47922;SDS011;33688;44.354;9.228;2022-09-19T18:45:35;1.50;;;0.90;;
47922;SDS011;33688;44.354;9.228;2022-09-19T18:48:02;3.10;;;1.00;;
47922;SDS011;33688;44.354;9.228;2022-09-19T18:50:28;2.40;;;1.20;;
47922;SDS011;33688;44.354;9.228;2022-09-19T18:52:54;2.22;;;1.20;;
47922;SDS011;33688;44.354;9.228;2022-09-19T18:55:21;1.45;;;0.73;;
47922;SDS011;33688;44.354;9.228;2022-09-19T18:57:47;1.88;;;1.10;;
47922;SDS011;33688;44.354;9.228;2022-09-19T19:00:13;2.03;;;1.15;;
47922;SDS011;33688;44.354;9.228;2022-09-19T19:02:39;2.78;;;1.50;;
47922;SDS011;33688;44.354;9.228;2022-09-19T19:05:06;2.38;;;1.23;;
47922;SDS011;33688;44.354;9.228;2022-09-19T19:07:32;2.17;;;1.50;;
47922;SDS011;33688;44.354;9.228;2022-09-19T19:09:58;2.70;;;1.08;;
47922;SDS011;33688;44.354;9.228;2022-09-19T19:12:24;1.73;;;1.30;;
47922;SDS011;33688;44.354;9.228;2022-09-19T19:14:50;1.70;;;1.02;;
47922;SDS011;33688;44.354;9.228;2022-09-19T19:17:24;4.97;;;0.98;;
47922;SDS011;33688;44.354;9.228;2022-09-19T19:19:50;2.92;;;1.25;;